Time;durP1;ratioP1;P1;durP2;ratioP2;P2;SDS_P1;SDS_P2;PMS_P1;PMS_P2;Temp;Humidity;BMP_temperature;BMP_pressure;BME280_temperature;BME280_humidity;BME280_pressure;Samples;Min_cycle;Max_cycle;Signal;HPM_P1;HPM_P2
2021/07/28 00:00:10;;;;;;;9.23;7.32;;;;;;;15.89;88.50;100458.25;696341;28;1115;-48
2021/07/28 00:00:33;;;;;;;9.63;7.63;;;;;;;15.87;88.10;100457.44;695339;28;4433;-48
2021/07/28 00:00:54;;;;;;;9.63;7.53;;;;;;;15.86;88.63;100460.97;695308;28;2254;-51
2021/07/28 00:01:21;;;;;;;9.40;7.70;;;;;;;15.94;88.21;100464.25;695171;28;1326;-49
2021/07/28 00:01:42;;;;;;;10.35;7.13;;;;;;;15.93;88.14;100462.50;695185;28;1238;-49
2021/07/28 00:02:03;;;;;;;10.60;7.47;;;;;;;15.91;88.79;100458.19;696862;28;1175;-51
2021/07/28 00:02:23;;;;;;;10.45;7.90;;;;;;;15.91;88.65;100456.44;697369;28;1096;-51
2021/07/28 00:02:44;;;;;;;10.60;7.50;;;;;;;15.92;88.84;100460.81;696421;28;1300;-50
2021/07/28 00:03:04;;;;;;;8.77;7.17;;;;;;;16.10;87.92;100458.50;696378;28;2477;-48
2021/07/28 00:03:24;;;;;;;9.23;7.45;;;;;;;16.13;87.55;100459.28;694382;28;4657;-49
2021/07/28 00:03:45;;;;;;;9.63;7.43;;;;;;;16.11;86.90;100455.81;695861;28;2574;-50
2021/07/28 00:04:05;;;;;;;8.73;7.40;;;;;;;16.06;87.94;100459.50;695116;28;1788;-50
2021/07/28 00:04:25;;;;;;;8.73;7.78;;;;;;;16.12;88.18;100457.53;697047;28;1037;-49
2021/07/28 00:04:46;;;;;;;9.17;7.67;;;;;;;16.05;87.97;100456.00;697025;28;967;-50
2021/07/28 00:05:07;;;;;;;9.10;7.23;;;;;;;16.00;87.87;100457.91;694514;28;1143;-52
2021/07/28 00:05:27;;;;;;;8.85;7.25;;;;;;;15.96;88.14;100454.53;691077;28;885;-48
2021/07/28 00:05:48;;;;;;;8.83;7.43;;;;;;;15.96;88.27;100459.81;691577;28;1010;-48
2021/07/28 00:06:08;;;;;;;8.38;7.43;;;;;;;16.00;88.59;100458.81;691722;28;3624;-50
2021/07/28 00:06:29;;;;;;;9.90;7.40;;;;;;;16.02;87.91;100456.13;689593;28;4559;-49
2021/07/28 00:06:49;;;;;;;9.20;7.38;;;;;;;15.99;87.92;100456.19;687055;28;3552;-48
2021/07/28 00:07:09;;;;;;;9.30;7.77;;;;;;;15.98;88.19;100459.75;691709;28;1156;-50
2021/07/28 00:07:30;;;;;;;9.38;7.28;;;;;;;16.05;87.64;100449.84;694646;28;1045;-49
2021/07/28 00:07:50;;;;;;;8.97;7.07;;;;;;;15.99;87.48;100457.06;694032;28;909;-49
2021/07/28 00:08:11;;;;;;;9.60;7.55;;;;;;;16.03;88.06;100454.34;693274;28;1094;-50
2021/07/28 00:08:31;;;;;;;9.30;7.67;;;;;;;16.07;87.45;100461.25;694000;28;1040;-48
2021/07/28 00:08:52;;;;;;;10.07;7.40;;;;;;;16.04;87.42;100453.44;695970;28;1195;-49
2021/07/28 00:09:12;;;;;;;11.40;7.60;;;;;;;15.98;87.86;100450.06;695652;28;3722;-49
2021/07/28 00:09:32;;;;;;;9.00;7.50;;;;;;;16.00;87.59;100463.19;694597;28;4641;-48
2021/07/28 00:09:53;;;;;;;8.25;7.30;;;;;;;15.97;87.17;100458.88;695648;28;1660;-48
2021/07/28 00:10:13;;;;;;;8.80;7.23;;;;;;;16.02;88.10;100455.22;696401;28;1615;-48
2021/07/28 00:10:34;;;;;;;10.13;7.53;;;;;;;16.02;88.34;100455.22;692727;28;993;-51
2021/07/28 00:10:54;;;;;;;8.77;7.65;;;;;;;16.07;87.30;100459.44;692991;28;888;-48
2021/07/28 00:11:15;;;;;;;8.50;7.00;;;;;;;16.05;87.36;100449.84;693942;28;1028;-48
2021/07/28 00:11:35;;;;;;;10.20;7.15;;;;;;;16.02;87.16;100455.22;691737;28;1119;-48
2021/07/28 00:11:56;;;;;;;9.43;7.40;;;;;;;15.99;86.66;100457.06;687864;28;3593;-49
2021/07/28 00:12:16;;;;;;;9.30;7.37;;;;;;;15.95;87.06;100452.81;686952;28;3743;-48
2021/07/28 00:12:36;;;;;;;11.13;7.63;;;;;;;15.94;87.21;100447.56;687126;28;4425;-49
2021/07/28 00:12:57;;;;;;;10.30;7.93;;;;;;;16.06;87.98;100452.47;688019;28;1012;-49
2021/07/28 00:13:18;;;;;;;9.40;7.32;;;;;;;16.04;86.90;100454.28;688321;28;1232;-49
2021/07/28 00:13:38;;;;;;;9.35;7.10;;;;;;;16.02;86.85;100452.59;691032;28;1246;-48
2021/07/28 00:14:00;;;;;;;8.70;7.27;;;;;;;16.03;87.65;100451.69;692726;28;1090;-50
2021/07/28 00:14:20;;;;;;;8.85;7.60;;;;;;;15.99;87.35;100451.78;695764;28;1098;-48
2021/07/28 00:14:40;;;;;;;10.27;7.60;;;;;;;15.97;87.27;100448.31;695664;28;3370;-49
2021/07/28 00:15:01;;;;;;;9.30;7.20;;;;;;;15.96;88.00;100446.63;695567;28;3501;-49
2021/07/28 00:15:23;;;;;;;9.57;7.30;;;;;;;15.92;87.73;100450.25;695369;28;1457;-48
2021/07/28 00:15:44;;;;;;;10.35;7.32;;;;;;;15.91;87.57;100448.53;695435;28;4346;-50
2021/07/28 00:16:09;;;;;;;9.87;6.83;;;;;;;15.90;87.29;100444.16;695387;28;1008;-51
2021/07/28 00:16:30;;;;;;;9.48;7.40;;;;;;;15.92;87.26;100450.25;696219;28;1273;-51
2021/07/28 00:16:50;;;;;;;9.10;7.67;;;;;;;15.89;87.40;100455.59;695677;28;1149;-49
2021/07/28 00:17:12;;;;;;;8.52;7.35;;;;;;;15.87;87.46;100446.91;695652;28;1095;-50
2021/07/28 00:17:34;;;;;;;9.93;7.32;;;;;;;15.83;88.96;100450.53;696701;28;1890;-49
2021/07/28 00:17:59;;;;;;;9.65;7.32;;;;;;;15.82;87.90;100454.06;694705;28;3819;-48
2021/07/28 00:18:37;;;;;;;8.40;7.40;;;;;;;15.83;88.13;100450.53;694520;28;1185;-50
2021/07/28 00:19:06;;;;;;;9.45;7.20;;;;;;;15.97;87.58;100456.25;691775;28;5214;-50
2021/07/28 00:19:31;;;;;;;9.20;7.38;;;;;;;15.97;87.04;100450.13;691892;28;1111;-49
2021/07/28 00:20:29;;;;;;;8.75;7.53;;;;;;;15.91;88.44;100456.44;693135;28;1091;-49
2021/07/28 00:23:16;;;;;;;9.25;7.25;;;;;;;15.85;87.36;100451.34;696409;28;3788;-49
2021/07/28 00:23:37;;;;;;;8.93;7.40;;;;;;;15.85;87.56;100453.97;695043;28;1193;-48
2021/07/28 00:23:57;;;;;;;9.50;7.43;;;;;;;15.83;87.98;100448.75;695488;28;1095;-55
2021/07/28 00:24:18;;;;;;;9.50;7.57;;;;;;;15.87;87.47;100457.44;694850;28;1441;-50
2021/07/28 00:24:38;;;;;;;9.73;7.55;;;;;;;15.87;87.35;100446.91;693016;28;4396;-48
2021/07/28 00:24:58;;;;;;;9.27;7.50;;;;;;;15.89;87.42;100452.97;694200;28;1059;-49
2021/07/28 00:25:19;;;;;;;9.20;7.50;;;;;;;15.87;87.53;100449.53;694859;28;1068;-49
2021/07/28 00:25:40;;;;;;;9.13;7.70;;;;;;;15.91;87.75;100447.66;694088;28;1126;-48
2021/07/28 00:26:00;;;;;;;9.20;7.55;;;;;;;15.96;87.83;100443.09;694306;28;3490;-49
2021/07/28 00:26:21;;;;;;;9.10;7.63;;;;;;;15.94;87.13;100448.44;696172;28;3421;-48
2021/07/28 00:26:41;;;;;;;10.70;7.60;;;;;;;15.95;87.06;100444.91;695710;28;1499;-49
2021/07/28 00:27:04;;;;;;;8.87;7.40;;;;;;;15.94;86.87;100442.31;696340;28;1067;-49
2021/07/28 00:27:24;;;;;;;8.65;7.05;;;;;;;15.93;86.80;100441.41;696795;28;4513;-49
2021/07/28 00:27:45;;;;;;;10.13;7.50;;;;;;;15.91;86.78;100443.25;693913;28;1150;-50
2021/07/28 00:28:05;;;;;;;9.60;7.20;;;;;;;15.92;86.91;100441.47;692019;28;1481;-49
2021/07/28 00:28:25;;;;;;;9.27;7.03;;;;;;;15.91;87.27;100435.34;691879;28;1178;-48
2021/07/28 00:28:46;;;;;;;9.53;7.23;;;;;;;15.90;86.75;100436.25;686329;28;1184;-48
2021/07/28 00:29:06;;;;;;;9.57;7.10;;;;;;;15.90;87.13;100436.25;685958;28;4388;-48
2021/07/28 00:29:27;;;;;;;10.03;7.50;;;;;;;15.89;87.14;100431.88;686506;28;1607;-50
2021/07/28 00:29:48;;;;;;;10.00;7.53;;;;;;;15.90;87.12;100436.25;689436;28;1432;-48
2021/07/28 00:30:09;;;;;;;10.10;7.53;;;;;;;15.88;87.03;100435.44;691158;28;1073;-50
2021/07/28 00:30:30;;;;;;;9.40;7.25;;;;;;;15.91;86.96;100435.34;690679;28;4520;-48
2021/07/28 00:30:50;;;;;;;10.10;7.07;;;;;;;15.91;87.02;100431.84;693353;28;888;-48
2021/07/28 00:31:10;;;;;;;9.87;7.20;;;;;;;15.92;87.34;100431.81;693154;28;1048;-51
2021/07/28 00:31:31;;;;;;;9.98;7.40;;;;;;;15.92;87.46;100431.81;693166;28;1069;-48
2021/07/28 00:31:51;;;;;;;9.50;7.57;;;;;;;15.99;87.12;100435.09;693713;28;3758;-48
2021/07/28 00:32:12;;;;;;;9.10;7.25;;;;;;;16.08;87.35;100428.69;692949;28;1444;-49
2021/07/28 00:32:33;;;;;;;8.97;7.00;;;;;;;16.07;87.41;100432.22;692682;28;1270;-51
2021/07/28 00:32:55;;;;;;;9.32;7.05;;;;;;;16.05;86.27;100431.41;690933;28;1270;-48
2021/07/28 00:33:16;;;;;;;8.43;6.82;;;;;;;16.02;86.85;100429.75;691389;28;1419;-51
2021/07/28 00:33:36;;;;;;;9.17;7.37;;;;;;;15.96;86.94;100430.81;690803;28;4384;-48
2021/07/28 00:33:56;;;;;;;9.40;7.60;;;;;;;15.91;87.37;100427.44;691332;28;1007;-48
2021/07/28 00:34:17;;;;;;;10.17;7.50;;;;;;;15.89;86.96;100420.47;689451;28;1230;-48
2021/07/28 00:34:37;;;;;;;10.13;7.20;;;;;;;15.89;86.81;100425.75;688381;28;4050;-48
2021/07/28 00:34:58;;;;;;;8.40;6.93;;;;;;;15.88;86.82;100427.53;690505;28;1137;-52
2021/07/28 00:35:20;;;;;;;9.07;7.20;;;;;;;15.87;87.19;100428.44;691106;28;1544;-49
2021/07/28 00:35:40;;;;;;;10.43;7.45;;;;;;;15.87;87.01;100427.56;691383;28;1100;-51
2021/07/28 00:36:01;;;;;;;9.47;7.10;;;;;;;15.88;86.68;100427.53;689689;28;1061;-50
2021/07/28 00:36:21;;;;;;;8.47;7.13;;;;;;;15.87;86.46;100428.44;694283;28;1033;-49
2021/07/28 00:36:41;;;;;;;9.43;7.50;;;;;;;15.89;87.90;100428.41;692404;28;4720;-48
2021/07/28 00:37:02;;;;;;;9.70;7.82;;;;;;;15.89;87.39;100433.66;690195;28;1271;-49
2021/07/28 00:37:22;;;;;;;9.73;7.50;;;;;;;15.90;88.14;100430.13;689420;28;2647;-49
2021/07/28 00:37:45;;;;;;;11.77;8.00;;;;;;;15.94;87.63;100429.97;689043;28;3624;-49
2021/07/28 00:38:06;;;;;;;9.65;7.38;;;;;;;15.97;87.82;100432.50;688678;28;2069;-49
2021/07/28 00:38:26;;;;;;;9.95;7.32;;;;;;;15.98;87.35;100433.41;691862;28;1099;-50
2021/07/28 00:38:46;;;;;;;9.77;7.27;;;;;;;15.93;88.05;100428.25;689032;28;1000;-48
2021/07/28 00:39:07;;;;;;;10.83;7.50;;;;;;;15.97;87.36;100431.66;690199;28;1252;-49
2021/07/28 00:39:27;;;;;;;10.80;7.87;;;;;;;16.01;87.81;100430.66;688801;28;4457;-52
2021/07/28 00:39:48;;;;;;;8.85;7.38;;;;;;;16.05;87.34;100429.66;691590;28;1083;-51
2021/07/28 00:40:08;;;;;;;10.03;7.77;;;;;;;16.04;87.34;100425.28;687309;28;2160;-50
2021/07/28 00:40:28;;;;;;;9.95;7.70;;;;;;;15.96;87.19;100435.19;687812;28;3474;-49
2021/07/28 00:40:49;;;;;;;9.60;7.87;;;;;;;15.95;87.74;100429.06;690691;28;1757;-51
2021/07/28 00:41:11;;;;;;;9.03;7.37;;;;;;;16.04;86.98;100432.34;691924;28;1175;-51
2021/07/28 00:41:32;;;;;;;11.10;7.47;;;;;;;16.05;87.47;100431.41;691593;28;1028;-54
2021/07/28 00:41:52;;;;;;;11.27;7.60;;;;;;;16.05;86.93;100426.13;691897;28;1059;-49
2021/07/28 00:42:12;;;;;;;9.00;7.13;;;;;;;15.98;86.94;100425.47;690796;28;1095;-49
2021/07/28 00:42:33;;;;;;;8.73;7.33;;;;;;;15.93;87.10;100424.75;689562;28;4480;-52
2021/07/28 00:43:11;;;;;;;9.38;7.05;;;;;;;15.90;86.70;100430.97;688439;28;1059;-49
2021/07/28 00:43:32;;;;;;;9.18;7.78;;;;;;;15.85;87.40;100427.63;688867;28;1470;-51
2021/07/28 00:43:52;;;;;;;10.43;7.65;;;;;;;15.82;87.44;100425.97;688581;28;1265;-49
2021/07/28 00:44:13;;;;;;;9.53;7.73;;;;;;;15.79;87.62;100423.38;686322;28;1148;-50
2021/07/28 00:44:33;;;;;;;9.53;7.57;;;;;;;15.77;88.03;100419.03;689150;28;1155;-52
2021/07/28 00:44:54;;;;;;;10.13;7.93;;;;;;;15.75;87.88;100421.72;691344;28;1109;-51
2021/07/28 00:45:14;;;;;;;9.23;7.77;;;;;;;15.72;88.54;100420.97;690962;28;1395;-50
2021/07/28 00:45:35;;;;;;;9.43;7.80;;;;;;;15.71;88.70;100425.38;687302;28;4601;-50
2021/07/28 00:45:56;;;;;;;9.13;7.53;;;;;;;15.70;88.63;100430.69;687651;28;3488;-50
2021/07/28 00:46:16;;;;;;;10.18;8.02;;;;;;;15.76;88.35;100427.88;688762;28;3926;-49
2021/07/28 00:46:37;;;;;;;11.03;8.00;;;;;;;15.76;87.67;100428.72;688598;28;1483;-49
2021/07/28 00:46:57;;;;;;;9.32;7.40;;;;;;;15.75;87.73;100426.16;688389;28;1414;-52
2021/07/28 00:47:17;;;;;;;9.73;7.63;;;;;;;15.74;87.85;100429.69;689216;28;1136;-48
2021/07/28 00:47:38;;;;;;;9.43;7.63;;;;;;;15.74;88.43;100430.56;690917;28;1275;-50
2021/07/28 00:47:58;;;;;;;9.53;7.63;;;;;;;15.77;87.67;100426.94;691760;28;1161;-50
2021/07/28 00:48:18;;;;;;;10.30;7.53;;;;;;;15.79;87.69;100428.66;690420;28;1082;-50
2021/07/28 00:48:39;;;;;;;10.43;7.33;;;;;;;15.80;87.13;100425.13;690128;28;4529;-50
2021/07/28 00:48:59;;;;;;;9.93;7.57;;;;;;;15.85;87.87;100427.63;691552;28;3413;-49
2021/07/28 00:49:21;;;;;;;10.93;8.10;;;;;;;15.86;87.39;100429.34;691966;28;1349;-51
2021/07/28 00:49:42;;;;;;;9.98;7.70;;;;;;;15.81;87.89;100428.63;691771;28;1083;-49
2021/07/28 00:50:04;;;;;;;9.65;7.75;;;;;;;15.80;87.98;100426.91;691804;28;1178;-48
2021/07/28 00:50:24;;;;;;;10.00;7.57;;;;;;;15.81;87.19;100431.25;691806;28;1534;-48
2021/07/28 00:50:45;;;;;;;9.35;7.97;;;;;;;15.79;87.02;100435.69;692102;28;1219;-49
2021/07/28 00:51:05;;;;;;;9.50;7.70;;;;;;;15.77;86.97;100426.94;691436;28;1448;-49
2021/07/28 00:51:26;;;;;;;9.00;7.40;;;;;;;15.75;87.44;100431.41;691222;28;4577;-50
2021/07/28 00:51:48;;;;;;;9.38;7.80;;;;;;;15.91;87.87;100424.81;693949;28;4135;-51
2021/07/28 00:52:08;;;;;;;9.95;8.02;;;;;;;15.84;87.98;100431.19;693732;28;959;-49
2021/07/28 00:52:30;;;;;;;10.03;7.73;;;;;;;15.93;87.79;100425.59;693599;28;1322;-54
2021/07/28 00:52:50;;;;;;;9.85;7.75;;;;;;;16.01;87.03;100430.66;691809;28;1014;-50
2021/07/28 00:53:18;;;;;;;8.77;7.30;;;;;;;15.94;87.18;100427.34;694812;28;938;-50
2021/07/28 00:53:38;;;;;;;10.27;7.90;;;;;;;15.89;87.32;100439.78;694378;28;1131;-48
2021/07/28 00:54:00;;;;;;;8.75;7.82;;;;;;;16.00;87.32;100432.44;694035;28;1265;-49
2021/07/28 00:54:20;;;;;;;9.77;7.72;;;;;;;15.96;86.85;100430.81;694653;28;2998;-49
2021/07/28 00:54:41;;;;;;;10.70;7.85;;;;;;;15.97;87.60;100432.50;694240;28;4592;-53
2021/07/28 00:55:01;;;;;;;11.07;8.20;;;;;;;16.02;86.65;100429.75;695526;28;1231;-50
2021/07/28 00:55:21;;;;;;;10.40;7.87;;;;;;;15.94;87.13;100429.97;695688;28;1254;-49
2021/07/28 00:55:42;;;;;;;10.38;8.20;;;;;;;15.89;86.98;100431.88;695191;28;1095;-49
2021/07/28 00:56:03;;;;;;;9.85;7.70;;;;;;;15.85;87.13;100422.34;693962;28;1210;-49
2021/07/28 00:56:25;;;;;;;8.80;7.30;;;;;;;15.82;86.89;100427.72;693938;28;1091;-51
2021/07/28 00:56:46;;;;;;;9.05;7.53;;;;;;;15.78;87.68;100421.66;693738;28;1068;-49
2021/07/28 00:57:09;;;;;;;9.05;7.97;;;;;;;15.76;86.97;100420.81;691840;28;958;-49
2021/07/28 00:57:29;;;;;;;10.65;7.90;;;;;;;15.73;88.32;100417.41;691092;28;4495;-50
2021/07/28 00:57:50;;;;;;;10.77;7.88;;;;;;;15.68;87.81;100420.19;691568;28;1174;-58
2021/07/28 00:58:10;;;;;;;8.63;7.70;;;;;;;15.70;88.38;100425.41;691814;28;1087;-49
2021/07/28 00:58:31;;;;;;;10.52;8.52;;;;;;;15.65;89.69;100425.56;692257;28;1119;-49
2021/07/28 00:58:51;;;;;;;10.33;8.40;;;;;;;15.63;88.32;100424.72;694678;28;1107;-51
2021/07/28 00:59:12;;;;;;;9.55;7.78;;;;;;;15.63;87.98;100416.81;696086;28;3236;-49
2021/07/28 00:59:32;;;;;;;9.52;7.70;;;;;;;15.64;87.53;100422.03;695404;28;1127;-49
2021/07/28 00:59:53;;;;;;;9.97;8.03;;;;;;;15.71;88.82;100422.72;694935;28;1070;-49
2021/07/28 01:00:14;;;;;;;9.75;8.07;;;;;;;15.72;88.61;100426.25;693644;28;4481;-51
2021/07/28 01:00:34;;;;;;;10.57;8.07;;;;;;;15.75;89.12;100421.72;694195;28;4410;-50
2021/07/28 01:00:55;;;;;;;11.30;8.13;;;;;;;15.87;88.56;100424.94;694315;28;1189;-49
2021/07/28 01:01:15;;;;;;;9.45;8.20;;;;;;;15.85;88.10;100427.63;694824;28;1124;-49
2021/07/28 01:01:36;;;;;;;9.15;8.15;;;;;;;15.89;88.33;100428.41;694565;28;1052;-50
2021/07/28 01:01:57;;;;;;;9.52;7.50;;;;;;;15.87;87.79;100419.66;694468;28;1064;-50
2021/07/28 01:02:17;;;;;;;11.30;7.87;;;;;;;15.89;87.50;100423.13;692868;28;1633;-50
2021/07/28 01:02:38;;;;;;;9.68;8.10;;;;;;;15.83;88.17;100426.81;691440;28;1247;-49
2021/07/28 01:02:58;;;;;;;9.33;8.23;;;;;;;15.79;88.00;100431.31;690651;28;3432;-49
2021/07/28 01:03:18;;;;;;;9.03;8.03;;;;;;;15.74;87.90;100425.28;691004;28;1310;-49
2021/07/28 01:03:39;;;;;;;9.43;8.10;;;;;;;15.72;87.74;100420.97;690979;28;4435;-51
2021/07/28 01:04:00;;;;;;;9.65;7.88;;;;;;;15.70;88.54;100428.03;688999;28;1161;-52
2021/07/28 01:04:20;;;;;;;9.13;8.23;;;;;;;15.69;88.46;100421.94;689184;28;1001;-52
2021/07/28 01:04:41;;;;;;;9.25;8.27;;;;;;;15.77;88.58;100419.03;690762;28;1092;-49
2021/07/28 01:05:03;;;;;;;10.97;8.00;;;;;;;15.85;88.24;100422.34;691218;28;1307;-50
2021/07/28 01:05:25;;;;;;;10.52;8.02;;;;;;;15.83;87.65;100426.81;691913;28;1056;-50
2021/07/28 01:05:45;;;;;;;9.95;8.18;;;;;;;15.82;87.83;100425.06;691565;28;3864;-53
2021/07/28 01:06:07;;;;;;;11.47;8.07;;;;;;;15.81;87.58;100426.88;693514;28;3553;-51
2021/07/28 01:06:28;;;;;;;11.70;7.93;;;;;;;15.77;87.65;100425.19;692264;28;4328;-51
2021/07/28 01:06:48;;;;;;;11.48;8.05;;;;;;;15.78;87.81;100420.78;693723;28;1041;-50
2021/07/28 01:07:09;;;;;;;11.43;8.30;;;;;;;15.76;87.57;100423.47;692971;28;1176;-51
2021/07/28 01:07:29;;;;;;;11.60;8.18;;;;;;;15.72;87.60;100421.81;692548;28;2223;-50
2021/07/28 01:07:49;;;;;;;10.00;8.03;;;;;;;15.71;87.86;100427.16;693795;28;966;-50
2021/07/28 01:08:10;;;;;;;9.43;8.10;;;;;;;15.71;87.54;100424.50;693115;28;1099;-51
2021/07/28 01:08:31;;;;;;;9.57;7.60;;;;;;;15.69;87.25;100426.31;692391;28;3726;-49
2021/07/28 01:08:51;;;;;;;10.43;7.53;;;;;;;15.70;87.04;100423.66;693463;28;3619;-50
2021/07/28 01:09:12;;;;;;;9.52;7.63;;;;;;;15.69;87.13;100421.03;692452;28;1198;-50
2021/07/28 01:09:32;;;;;;;10.20;8.10;;;;;;;15.71;88.29;100420.09;691568;28;4453;-49
2021/07/28 01:09:53;;;;;;;10.98;8.40;;;;;;;15.71;88.35;100424.50;690284;28;1006;-51
2021/07/28 01:10:13;;;;;;;10.30;8.03;;;;;;;15.69;87.68;100421.94;691015;28;1386;-49
2021/07/28 01:10:34;;;;;;;10.15;7.95;;;;;;;15.68;87.26;100420.19;691079;28;1342;-58
2021/07/28 01:10:56;;;;;;;8.70;7.73;;;;;;;15.70;87.26;100421.03;690431;28;1134;-52
2021/07/28 01:11:24;;;;;;;10.57;7.50;;;;;;;15.71;87.61;100419.25;691897;28;3603;-52
2021/07/28 01:11:45;;;;;;;10.55;8.25;;;;;;;15.71;87.77;100424.50;690676;28;3539;-50
2021/07/28 01:12:06;;;;;;;9.83;8.20;;;;;;;15.68;88.09;100421.97;690540;28;1102;-49
2021/07/28 01:12:29;;;;;;;10.27;8.30;;;;;;;15.66;87.83;100422.03;690175;28;4515;-49
2021/07/28 01:12:54;;;;;;;9.45;8.05;;;;;;;15.64;88.34;100419.41;694011;28;1118;-50
2021/07/28 01:13:16;;;;;;;10.25;8.50;;;;;;;15.61;88.19;100419.50;693483;28;1193;-53
2021/07/28 01:13:37;;;;;;;9.85;8.18;;;;;;;15.59;88.17;100413.44;692861;28;1099;-50
2021/07/28 01:13:57;;;;;;;9.43;8.13;;;;;;;15.60;87.55;100420.44;692241;28;1329;-49
2021/07/28 01:14:20;;;;;;;9.40;8.00;;;;;;;15.63;86.94;100417.69;692542;28;3580;-49
2021/07/28 01:14:43;;;;;;;10.68;8.10;;;;;;;15.62;87.24;100410.69;692750;28;1356;-52
2021/07/28 01:15:04;;;;;;;10.75;8.27;;;;;;;15.65;87.62;100415.03;691362;28;1346;-50
2021/07/28 01:16:10;;;;;;;10.93;8.60;;;;;;;15.62;87.83;100413.34;694403;28;1269;-49
2021/07/28 01:16:36;;;;;;;9.30;8.13;;;;;;;15.58;88.67;100414.34;693572;28;1100;-49
2021/07/28 01:16:57;;;;;;;9.95;8.88;;;;;;;15.65;88.74;100410.59;692995;28;3567;-49
2021/07/28 01:17:17;;;;;;;11.00;8.90;;;;;;;15.63;89.02;100420.34;692178;28;3664;-50
2021/07/28 01:17:38;;;;;;;11.13;8.82;;;;;;;15.68;88.77;100419.34;692081;28;3665;-50
2021/07/28 01:18:00;;;;;;;12.43;8.60;;;;;;;15.67;87.98;100410.56;691344;28;1363;-49
2021/07/28 01:18:21;;;;;;;10.63;8.13;;;;;;;15.66;87.64;100414.97;692559;28;1246;-49
2021/07/28 01:18:43;;;;;;;9.53;7.63;;;;;;;15.68;87.37;100414.06;692269;28;4353;-50
2021/07/28 01:19:14;;;;;;;9.68;7.95;;;;;;;15.68;87.86;100414.06;694350;28;1063;-49
2021/07/28 01:19:44;;;;;;;9.55;8.10;;;;;;;15.66;87.74;100409.69;693457;28;1004;-50
2021/07/28 01:20:07;;;;;;;10.05;8.00;;;;;;;15.65;88.89;100412.38;692445;28;3380;-54
2021/07/28 01:20:34;;;;;;;9.90;8.30;;;;;;;15.60;89.40;100406.38;692276;28;1256;-50
2021/07/28 01:20:55;;;;;;;12.23;8.90;;;;;;;15.59;89.03;100410.78;691922;28;1335;-49
2021/07/28 01:21:17;;;;;;;11.17;8.37;;;;;;;15.60;89.23;100403.75;692272;28;1116;-49
2021/07/28 01:21:38;;;;;;;10.82;8.25;;;;;;;15.57;89.99;100415.22;689600;28;4486;-49
2021/07/28 01:22:01;;;;;;;11.00;8.70;;;;;;;15.55;89.84;100409.16;687798;28;1207;-51
2021/07/28 01:22:22;;;;;;;11.32;8.27;;;;;;;15.59;88.81;100404.66;690269;28;1231;-50
2021/07/28 01:22:42;;;;;;;9.27;7.78;;;;;;;15.63;89.26;100406.28;688729;28;3100;-51
2021/07/28 01:23:27;;;;;;;10.57;8.20;;;;;;;15.64;89.14;100402.75;690047;28;3420;-51
2021/07/28 01:23:49;;;;;;;9.75;8.15;;;;;;;15.61;88.52;100403.69;688529;28;1036;-50
2021/07/28 01:24:12;;;;;;;8.80;7.68;;;;;;;15.61;88.04;100406.34;688194;28;1084;-49
2021/07/28 01:24:33;;;;;;;11.02;8.20;;;;;;;15.59;87.93;100400.25;688360;28;4563;-49
2021/07/28 01:24:54;;;;;;;11.13;8.52;;;;;;;15.60;87.45;100396.72;689149;28;961;-50
2021/07/28 01:25:14;;;;;;;10.13;8.37;;;;;;;15.63;87.42;100401.91;687836;28;1263;-50
2021/07/28 01:25:37;;;;;;;10.50;8.10;;;;;;;15.66;87.59;100400.94;690071;28;3117;-51
2021/07/28 01:26:01;;;;;;;9.57;8.32;;;;;;;15.73;87.82;100396.31;690288;28;1969;-50
2021/07/28 01:26:21;;;;;;;9.55;8.15;;;;;;;15.81;87.54;100400.50;691082;28;1067;-50
2021/07/28 01:26:43;;;;;;;9.95;7.97;;;;;;;15.78;87.23;100395.31;691756;28;1258;-50
2021/07/28 01:27:05;;;;;;;10.75;7.93;;;;;;;15.72;88.08;100394.63;692145;28;1124;-50
2021/07/28 01:27:26;;;;;;;9.75;8.43;;;;;;;15.64;88.70;100397.47;691791;28;926;-49
2021/07/28 01:27:47;;;;;;;9.93;8.20;;;;;;;15.61;88.57;100393.16;693594;28;4894;-51
2021/07/28 01:28:08;;;;;;;12.02;8.45;;;;;;;15.59;87.97;100392.34;694336;28;1175;-50
2021/07/28 01:28:31;;;;;;;10.90;8.38;;;;;;;15.59;88.57;100389.72;693448;28;3951;-49
2021/07/28 01:28:52;;;;;;;10.07;8.05;;;;;;;15.58;87.69;100390.63;693230;28;1567;-52
2021/07/28 01:29:13;;;;;;;10.88;8.63;;;;;;;15.55;90.19;100396.00;692710;28;1542;-50
2021/07/28 01:29:34;;;;;;;10.43;8.93;;;;;;;15.52;90.16;100392.56;694153;28;1126;-49
2021/07/28 01:29:54;;;;;;;11.30;8.43;;;;;;;15.50;89.68;100389.97;694241;28;1434;-49
2021/07/28 01:30:17;;;;;;;11.27;8.70;;;;;;;15.48;89.27;100391.81;693962;28;1115;-49
2021/07/28 01:30:37;;;;;;;9.77;8.15;;;;;;;15.47;89.02;100390.94;693231;28;4391;-50
2021/07/28 01:31:00;;;;;;;9.37;8.00;;;;;;;15.47;89.11;100387.44;692837;28;1105;-49
2021/07/28 01:31:22;;;;;;;9.38;8.20;;;;;;;15.50;88.67;100390.84;693436;28;3679;-50
2021/07/28 01:31:43;;;;;;;10.45;8.07;;;;;;;15.50;88.75;100393.47;690935;28;1410;-49
2021/07/28 01:32:04;;;;;;;12.90;8.20;;;;;;;15.52;88.91;100388.19;692719;28;1206;-51
2021/07/28 01:32:25;;;;;;;11.33;8.30;;;;;;;15.50;89.57;100390.84;695169;28;1326;-49
2021/07/28 01:32:48;;;;;;;10.40;8.52;;;;;;;15.46;90.16;100386.56;691968;28;1018;-49
2021/07/28 01:33:09;;;;;;;11.40;8.68;;;;;;;15.46;90.32;100386.56;692317;28;1170;-51
2021/07/28 01:33:32;;;;;;;10.60;8.93;;;;;;;15.46;89.36;100391.84;692240;28;4418;-50
2021/07/28 01:33:52;;;;;;;11.57;8.73;;;;;;;15.47;90.08;100388.28;694247;28;1846;-49
2021/07/28 01:34:13;;;;;;;11.20;8.70;;;;;;;15.46;90.24;100389.19;694489;28;2787;-51
2021/07/28 01:34:34;;;;;;;10.77;8.67;;;;;;;15.43;91.02;100386.66;694202;28;1261;-52
2021/07/28 01:34:55;;;;;;;10.88;9.15;;;;;;;15.40;90.77;100388.53;693783;28;3522;-49
2021/07/28 01:35:16;;;;;;;11.40;8.83;;;;;;;15.40;90.84;100388.53;693977;28;971;-50
2021/07/28 01:35:39;;;;;;;10.63;8.73;;;;;;;15.40;89.94;100385.91;693054;28;1372;-51
2021/07/28 01:36:00;;;;;;;10.05;8.32;;;;;;;15.42;89.88;100387.56;693839;28;1023;-49
2021/07/28 01:36:23;;;;;;;11.35;8.98;;;;;;;15.44;90.49;100390.19;696248;28;1024;-51
2021/07/28 01:36:45;;;;;;;10.82;8.80;;;;;;;15.44;89.94;100384.91;695358;28;4360;-50
2021/07/28 01:37:08;;;;;;;10.65;8.60;;;;;;;15.45;89.46;100386.63;695977;28;3830;-51
2021/07/28 01:37:30;;;;;;;11.23;9.00;;;;;;;15.47;90.56;100387.44;694377;28;1285;-49
2021/07/28 01:37:51;;;;;;;10.85;8.88;;;;;;;15.47;89.56;100383.03;694040;28;1268;-50
2021/07/28 01:38:11;;;;;;;11.52;8.30;;;;;;;15.50;90.31;100387.34;694709;28;1207;-49
2021/07/28 01:38:35;;;;;;;10.50;8.70;;;;;;;15.45;90.38;100382.22;692502;28;1586;-53
2021/07/28 01:38:56;;;;;;;11.73;9.35;;;;;;;15.43;90.84;100383.19;691436;28;1557;-50
2021/07/28 01:39:16;;;;;;;11.73;9.10;;;;;;;15.45;90.53;100387.50;692725;28;1136;-51
2021/07/28 01:39:36;;;;;;;10.70;8.63;;;;;;;15.45;89.79;100383.97;692427;28;4578;-49
2021/07/28 01:39:57;;;;;;;11.02;8.77;;;;;;;15.47;89.45;100384.81;692774;28;3425;-51
2021/07/28 01:40:17;;;;;;;10.37;8.47;;;;;;;15.48;89.00;100383.91;693623;28;1349;-50
2021/07/28 01:40:39;;;;;;;11.07;8.82;;;;;;;15.45;89.89;100381.34;693049;28;1657;-49
2021/07/28 01:41:02;;;;;;;11.07;9.40;;;;;;;15.59;89.77;100386.19;693933;28;1148;-50
2021/07/28 01:41:22;;;;;;;11.85;9.32;;;;;;;15.55;89.90;100377.53;691680;28;1191;-51
2021/07/28 01:41:44;;;;;;;12.30;9.25;;;;;;;15.49;90.43;100391.78;692044;28;1152;-52
2021/07/28 01:42:04;;;;;;;11.50;9.30;;;;;;;15.45;90.16;100381.34;692430;28;1289;-52
2021/07/28 01:42:25;;;;;;;11.48;8.93;;;;;;;15.42;90.19;100384.06;692806;28;4660;-49
2021/07/28 01:42:46;;;;;;;11.00;8.73;;;;;;;15.41;89.45;100385.84;693862;28;3799;-49
2021/07/28 01:43:14;;;;;;;12.32;8.82;;;;;;;15.37;91.55;100385.97;694006;28;1484;-49
2021/07/28 01:43:35;;;;;;;12.07;9.52;;;;;;;15.33;91.73;100386.06;693170;28;1334;-50
2021/07/28 01:43:55;;;;;;;12.00;9.48;;;;;;;15.33;91.15;100388.69;693351;28;1463;-50
2021/07/28 01:44:15;;;;;;;12.30;9.43;;;;;;;15.42;90.59;100381.44;693436;28;1183;-50
2021/07/28 01:44:38;;;;;;;11.97;9.30;;;;;;;15.41;89.94;100384.97;694584;28;1318;-51
2021/07/28 01:44:58;;;;;;;10.20;9.10;;;;;;;15.41;90.81;100382.34;693121;28;1226;-52
2021/07/28 01:45:18;;;;;;;10.38;9.25;;;;;;;15.39;90.54;100382.38;693604;28;3519;-49